createdAt,value
2019-05-28T00:01:41.751Z,16.30
2019-05-28T00:04:10.516Z,16.30
2019-05-28T00:06:39.520Z,16.60
2019-05-28T00:09:08.309Z,16.30
2019-05-28T00:11:36.701Z,16.30
2019-05-28T00:14:06.793Z,16.20
2019-05-28T00:16:35.267Z,16.90
2019-05-28T00:19:04.375Z,16.10
2019-05-28T00:21:32.362Z,16.20
2019-05-28T00:24:00.519Z,16.20
2019-05-28T00:26:28.997Z,16.20
2019-05-28T00:28:57.160Z,16.20
2019-05-28T00:31:25.469Z,16.10
2019-05-28T00:33:53.297Z,16.20
2019-05-28T00:36:20.919Z,16.20
2019-05-28T00:38:51.444Z,16.20
2019-05-28T00:41:29.927Z,16.10
2019-05-28T00:43:58.352Z,16.10
2019-05-28T00:46:27.331Z,16.10
2019-05-28T00:48:55.179Z,16.10
2019-05-28T00:51:22.958Z,16.10
2019-05-28T00:53:50.256Z,16.10
2019-05-28T00:56:20.017Z,16.10
2019-05-28T00:58:48.599Z,16.10
2019-05-28T01:01:16.004Z,16.10
2019-05-28T01:03:44.490Z,16.20
2019-05-28T01:06:14.686Z,16.10
2019-05-28T01:08:45.703Z,16.10
2019-05-28T01:11:14.463Z,16.10
2019-05-28T01:13:42.941Z,16.10
2019-05-28T01:16:10.956Z,16.10
2019-05-28T01:18:39.621Z,16.00
2019-05-28T01:21:08.695Z,16.00
2019-05-28T01:23:37.804Z,16.00
2019-05-28T01:26:06.377Z,16.00
2019-05-28T01:28:35.306Z,16.60
2019-05-28T01:31:03.050Z,16.10
2019-05-28T01:33:31.530Z,16.10
2019-05-28T01:36:00.648Z,16.00
2019-05-28T01:38:30.387Z,15.90
2019-05-28T01:40:58.833Z,15.90
2019-05-28T01:43:26.927Z,15.80
2019-05-28T01:45:57.789Z,15.80
2019-05-28T01:48:27.100Z,15.80
2019-05-28T01:50:56.331Z,15.80
2019-05-28T01:53:24.435Z,15.80
2019-05-28T01:55:53.076Z,15.80
2019-05-28T01:58:21.720Z,15.80
2019-05-28T02:00:51.776Z,15.70
2019-05-28T02:03:19.392Z,15.70
2019-05-28T02:05:47.550Z,15.70
2019-05-28T02:08:16.021Z,15.60
2019-05-28T02:10:46.732Z,15.60
2019-05-28T02:15:44.120Z,15.60
2019-05-28T02:18:14.260Z,15.60
2019-05-28T02:20:43.135Z,15.50
2019-05-28T02:23:11.307Z,15.60
2019-05-28T02:25:39.676Z,15.60
2019-05-28T02:28:08.718Z,15.60
2019-05-28T02:30:37.152Z,15.50
2019-05-28T02:33:06.134Z,15.50
2019-05-28T02:35:52.900Z,15.50
2019-05-28T02:38:21.145Z,15.50
2019-05-28T02:43:17.179Z,15.50
2019-05-28T02:45:44.843Z,15.50
2019-05-28T02:48:16.095Z,15.80
2019-05-28T02:50:58.551Z,15.40
2019-05-28T02:53:28.623Z,15.40
2019-05-28T02:55:57.665Z,15.40
2019-05-28T02:58:35.978Z,15.40
2019-05-28T03:01:06.002Z,15.50
2019-05-28T03:03:34.616Z,15.50
2019-05-28T03:06:05.287Z,15.50
2019-05-28T03:08:34.086Z,15.50
2019-05-28T03:11:04.408Z,15.50
2019-05-28T03:13:34.422Z,15.50
2019-05-28T03:16:05.942Z,15.50
2019-05-28T03:18:39.789Z,15.50
2019-05-28T03:21:11.628Z,15.50
2019-05-28T03:23:43.064Z,15.50
2019-05-28T03:26:12.184Z,15.50
2019-05-28T03:28:42.908Z,15.50
2019-05-28T03:31:14.543Z,15.60
2019-05-28T03:33:43.041Z,15.50
2019-05-28T03:36:15.112Z,15.50
2019-05-28T03:38:45.512Z,15.50
2019-05-28T03:41:13.500Z,15.50
2019-05-28T03:43:42.759Z,15.80
2019-05-28T03:46:11.652Z,15.50
2019-05-28T03:51:10.756Z,15.50
2019-05-28T03:53:38.363Z,15.50
2019-05-28T03:56:09.776Z,15.70
2019-05-28T03:58:40.594Z,15.30
2019-05-28T04:03:40.348Z,15.40
2019-05-28T04:08:36.412Z,15.40
2019-05-28T04:11:05.916Z,15.40
2019-05-28T04:13:34.820Z,15.60
2019-05-28T04:18:30.972Z,15.50
2019-05-28T04:23:28.636Z,15.40
2019-05-28T04:28:26.991Z,14.70
2019-05-28T04:30:58.053Z,15.00
2019-05-28T04:33:26.807Z,15.00
2019-05-28T04:38:26.143Z,15.50
2019-05-28T04:40:55.173Z,15.20
2019-05-28T04:43:23.977Z,15.20
2019-05-28T04:45:52.459Z,15.20
2019-05-28T04:48:20.074Z,15.20
2019-05-28T04:50:53.029Z,15.20
2019-05-28T04:53:22.080Z,15.30
2019-05-28T04:55:50.990Z,15.30
2019-05-28T04:58:18.980Z,15.30
2019-05-28T05:00:48.366Z,15.30
2019-05-28T05:03:16.792Z,15.30
2019-05-28T05:05:45.347Z,15.30
2019-05-28T05:08:14.249Z,15.30
2019-05-28T05:10:43.301Z,15.30
2019-05-28T05:13:12.271Z,15.30
2019-05-28T05:18:08.131Z,15.40
2019-05-28T05:20:36.431Z,15.40
2019-05-28T05:23:06.315Z,15.40
2019-05-28T05:25:34.439Z,15.40
2019-05-28T05:28:02.609Z,15.40
2019-05-28T05:30:32.734Z,15.40
2019-05-28T05:33:18.501Z,15.40
2019-05-28T05:35:31.094Z,15.30
2019-05-28T05:37:59.342Z,15.30
2019-05-28T05:40:29.073Z,15.30
2019-05-28T05:42:56.817Z,15.40
2019-05-28T05:45:24.942Z,15.40
2019-05-28T05:47:54.506Z,15.30
2019-05-28T05:50:23.955Z,15.40
2019-05-28T05:52:52.191Z,15.40
2019-05-28T05:55:23.305Z,15.40
2019-05-28T05:57:51.497Z,15.50
2019-05-28T06:02:48.134Z,15.50
2019-05-28T06:05:16.100Z,15.50
2019-05-28T06:07:45.384Z,15.50
2019-05-28T06:12:42.135Z,15.50
2019-05-28T06:15:12.289Z,15.50
2019-05-28T06:17:41.149Z,15.50
2019-05-28T06:20:10.237Z,15.50
2019-05-28T06:22:38.736Z,15.40
2019-05-28T06:25:08.059Z,15.40
2019-05-28T06:27:36.548Z,15.30
2019-05-28T06:30:05.247Z,15.20
2019-05-28T06:32:34.920Z,15.20
2019-05-28T06:35:04.028Z,15.10
2019-05-28T06:37:32.713Z,15.10
2019-05-28T06:40:01.152Z,15.00
2019-05-28T06:42:29.464Z,15.00
2019-05-28T06:44:57.138Z,14.90
2019-05-28T06:47:29.587Z,14.70
2019-05-28T06:49:57.950Z,14.70
2019-05-28T06:54:54.075Z,14.70
2019-05-28T06:57:23.436Z,14.70
2019-05-28T06:59:52.554Z,14.70
2019-05-28T07:02:19.904Z,14.80
2019-05-28T07:07:17.207Z,15.00
2019-05-28T07:09:45.923Z,15.10
2019-05-28T07:14:42.167Z,15.30
2019-05-28T07:17:10.645Z,15.40
2019-05-28T07:19:45.742Z,15.70
2019-05-28T07:22:27.280Z,15.50
2019-05-28T07:24:54.919Z,15.50
2019-05-28T07:27:34.452Z,15.60
2019-05-28T07:30:30.446Z,15.70
2019-05-28T07:39:39.605Z,16.10
2019-05-28T07:42:08.782Z,16.10
2019-05-28T07:44:37.030Z,16.10
2019-05-28T07:47:11.043Z,16.30
2019-05-28T07:49:39.695Z,16.20
2019-05-28T07:52:19.058Z,16.40
2019-05-28T07:54:47.472Z,16.10
2019-05-28T07:57:18.148Z,16.60
2019-05-28T07:59:47.928Z,16.70
2019-05-28T08:02:18.794Z,16.60
2019-05-28T08:04:47.894Z,16.70
2019-05-28T08:07:17.103Z,16.60
2019-05-28T08:09:44.454Z,16.60
2019-05-28T08:12:12.553Z,16.70
2019-05-28T08:14:41.639Z,16.80
2019-05-28T08:17:09.336Z,16.80
2019-05-28T08:19:36.674Z,16.80
2019-05-28T08:22:04.644Z,16.90
2019-05-28T08:24:32.296Z,16.90
2019-05-28T08:27:00.805Z,17.00
2019-05-28T08:29:29.294Z,16.90
2019-05-28T08:31:57.662Z,16.90
2019-05-28T08:34:25.653Z,16.90
2019-05-28T08:37:05.038Z,17.20
2019-05-28T08:39:24.984Z,17.10
2019-05-28T08:41:53.773Z,17.20
2019-05-28T08:44:25.397Z,17.10
2019-05-28T08:46:53.560Z,17.10
2019-05-28T08:49:24.019Z,17.10
2019-05-28T08:51:53.619Z,17.30
2019-05-28T08:54:23.708Z,17.50
2019-05-28T08:56:51.415Z,17.50
2019-05-28T08:59:21.786Z,18.00
2019-05-28T09:01:51.106Z,18.20
2019-05-28T09:04:22.389Z,18.10
2019-05-28T09:09:20.160Z,17.70
2019-05-28T09:11:50.177Z,17.70
2019-05-28T09:16:47.098Z,17.60
2019-05-28T09:19:16.133Z,17.50
2019-05-28T09:21:48.003Z,17.60
2019-05-28T09:24:19.495Z,17.60
2019-05-28T09:29:26.480Z,18.40
2019-05-28T09:31:57.336Z,18.90
2019-05-28T09:34:25.366Z,19.30
2019-05-28T09:36:54.391Z,19.40
2019-05-28T09:39:26.651Z,19.90
2019-05-28T09:41:59.551Z,20.20
2019-05-28T09:44:34.237Z,20.50
2019-05-28T09:47:10.051Z,20.90
2019-05-28T09:49:40.930Z,21.30
2019-05-28T09:52:32.650Z,21.60
2019-05-28T09:55:04.306Z,21.80
2019-05-28T09:57:47.435Z,21.60
2019-05-28T10:00:14.438Z,21.00
2019-05-28T10:02:49.500Z,20.60
2019-05-28T10:05:21.735Z,20.20
2019-05-28T10:07:53.773Z,19.90
2019-05-28T10:10:22.570Z,19.90
2019-05-28T10:12:53.640Z,19.50
2019-05-28T10:15:22.979Z,19.40
2019-05-28T10:17:53.429Z,19.10
2019-05-28T10:20:23.292Z,18.90
2019-05-28T10:22:52.666Z,18.90
2019-05-28T10:25:23.828Z,18.90
2019-05-28T10:28:00.658Z,18.80
2019-05-28T10:30:23.391Z,18.60
2019-05-28T10:32:51.922Z,18.80
2019-05-28T10:35:22.876Z,19.30
2019-05-28T10:37:53.909Z,19.70
2019-05-28T10:40:24.034Z,19.90
2019-05-28T10:42:53.394Z,20.30
2019-05-28T10:45:22.230Z,20.30
2019-05-28T10:47:49.780Z,20.30
2019-05-28T10:50:20.138Z,20.30
2019-05-28T10:52:47.610Z,20.10
2019-05-28T10:55:18.246Z,20.30
2019-05-28T10:57:47.752Z,19.90
2019-05-28T11:00:22.322Z,19.70
2019-05-28T11:02:52.951Z,19.80
2019-05-28T11:05:23.379Z,20.50
2019-05-28T11:07:53.889Z,21.30
2019-05-28T11:10:24.813Z,22.00
2019-05-28T11:12:55.634Z,22.00
2019-05-28T11:15:24.605Z,21.50
2019-05-28T11:20:27.994Z,20.30
2019-05-28T11:22:56.920Z,19.80
2019-05-28T11:25:28.527Z,19.40
2019-05-28T11:30:25.724Z,19.70
2019-05-28T11:32:56.170Z,19.70
2019-05-28T11:35:27.749Z,19.70
2019-05-28T11:38:17.427Z,19.70
2019-05-28T11:40:46.132Z,19.80
2019-05-28T11:43:18.059Z,19.90
2019-05-28T11:45:45.474Z,20.50
2019-05-28T11:48:15.269Z,21.00
2019-05-28T11:50:43.959Z,21.60
2019-05-28T11:53:12.114Z,21.80
2019-05-28T11:55:40.554Z,22.00
2019-05-28T11:58:09.634Z,21.90
2019-05-28T12:00:40.106Z,21.70
2019-05-28T12:05:36.918Z,21.20
2019-05-28T12:08:09.784Z,21.30
2019-05-28T12:10:39.228Z,21.50
2019-05-28T12:13:11.054Z,21.40
2019-05-28T12:15:42.418Z,21.30
2019-05-28T12:18:10.884Z,21.60
2019-05-28T12:20:39.049Z,21.90
2019-05-28T12:23:11.563Z,22.10
2019-05-28T12:25:40.665Z,22.30
2019-05-28T12:28:09.475Z,22.30
2019-05-28T12:30:57.921Z,22.30
2019-05-28T12:33:28.600Z,21.90
2019-05-28T12:35:57.400Z,21.90
2019-05-28T12:38:26.849Z,21.10
2019-05-28T12:40:56.511Z,21.20
2019-05-28T12:43:26.327Z,21.40
2019-05-28T12:45:55.712Z,22.20
2019-05-28T12:48:25.083Z,22.50
2019-05-28T12:50:54.060Z,22.70
2019-05-28T12:53:24.019Z,22.70
2019-05-28T12:55:54.079Z,22.60
2019-05-28T12:58:40.748Z,22.40
2019-05-28T13:00:56.734Z,22.00
2019-05-28T13:03:25.348Z,21.90
2019-05-28T13:05:53.755Z,21.70
2019-05-28T13:08:22.251Z,21.60
2019-05-28T13:10:52.429Z,21.80
2019-05-28T13:13:24.064Z,21.70
2019-05-28T13:18:20.852Z,21.20
2019-05-28T13:20:48.980Z,21.20
2019-05-28T13:23:17.600Z,21.40
2019-05-28T13:25:46.821Z,21.50
2019-05-28T13:30:43.816Z,22.40
2019-05-28T13:33:13.437Z,22.50
2019-05-28T13:35:42.099Z,22.60
2019-05-28T13:38:26.655Z,22.40
2019-05-28T13:40:47.497Z,22.00
2019-05-28T13:43:17.888Z,21.70
2019-05-28T13:45:47.000Z,21.60
2019-05-28T13:48:15.617Z,21.40
2019-05-28T13:50:45.020Z,21.20
2019-05-28T13:55:42.122Z,21.00
2019-05-28T13:58:13.165Z,21.10
2019-05-28T14:00:42.899Z,21.10
2019-05-28T14:03:13.413Z,21.20
2019-05-28T14:05:42.616Z,21.30
2019-05-28T14:08:11.172Z,21.30
2019-05-28T14:10:38.559Z,21.30
2019-05-28T14:13:09.942Z,21.30
2019-05-28T14:15:38.510Z,21.30
2019-05-28T14:20:38.532Z,21.20
2019-05-28T14:23:07.331Z,21.30
2019-05-28T14:25:35.616Z,21.30
2019-05-28T14:28:10.707Z,21.30
2019-05-28T14:33:19.658Z,21.20
2019-05-28T14:35:47.948Z,21.10
2019-05-28T14:38:21.981Z,20.80
2019-05-28T14:43:32.012Z,20.40
2019-05-28T14:48:29.731Z,20.40
2019-05-28T14:51:03.677Z,20.30
2019-05-28T14:53:31.637Z,20.30
2019-05-28T14:56:04.649Z,20.40
2019-05-28T14:58:33.168Z,20.40
2019-05-28T15:01:02.723Z,20.50
2019-05-28T15:03:31.730Z,20.40
2019-05-28T15:06:03.708Z,20.40
2019-05-28T15:08:31.392Z,20.40
2019-05-28T15:11:00.289Z,20.30
2019-05-28T15:13:31.043Z,20.30
2019-05-28T15:15:59.917Z,20.30
2019-05-28T15:18:30.659Z,20.30
2019-05-28T15:21:01.604Z,20.30
2019-05-28T15:23:31.739Z,20.10
2019-05-28T15:25:59.933Z,19.90
2019-05-28T15:28:30.157Z,19.90
2019-05-28T15:30:58.856Z,19.70
2019-05-28T15:33:27.096Z,19.50
2019-05-28T15:36:02.548Z,19.50
2019-05-28T15:38:31.029Z,19.40
2019-05-28T15:41:01.298Z,19.50
2019-05-28T15:43:29.001Z,19.50
2019-05-28T15:45:57.424Z,19.50
2019-05-28T15:48:27.816Z,19.50
2019-05-28T15:50:57.897Z,19.50
2019-05-28T15:53:26.254Z,19.50
2019-05-28T15:55:55.750Z,19.40
2019-05-28T15:58:23.097Z,19.40
2019-05-28T16:00:52.485Z,19.30
2019-05-28T16:03:21.629Z,19.30
2019-05-28T16:08:18.343Z,19.30
2019-05-28T16:10:47.521Z,19.30
2019-05-28T16:13:16.938Z,19.20
2019-05-28T16:15:45.524Z,19.20
2019-05-28T16:18:14.932Z,19.10
2019-05-28T16:20:43.891Z,19.00
2019-05-28T16:23:15.427Z,19.10
2019-05-28T16:25:47.507Z,19.30
2019-05-28T16:28:16.078Z,19.30
2019-05-28T16:30:45.780Z,19.50
2019-05-28T16:33:18.115Z,19.60
2019-05-28T16:35:46.161Z,19.60
2019-05-28T16:38:14.572Z,19.60
2019-05-28T16:40:42.842Z,19.60
2019-05-28T16:43:12.571Z,19.50
2019-05-28T16:45:41.610Z,19.40
2019-05-28T16:48:09.740Z,19.30
2019-05-28T16:50:38.405Z,19.30
2019-05-28T16:53:06.666Z,19.30
2019-05-28T16:55:35.029Z,19.30
2019-05-28T16:58:04.252Z,19.30
2019-05-28T17:00:32.717Z,19.30
2019-05-28T17:03:00.806Z,19.30
2019-05-28T17:05:30.252Z,19.30
2019-05-28T17:07:59.875Z,19.20
2019-05-28T17:10:32.918Z,19.10
2019-05-28T17:12:58.590Z,19.10
2019-05-28T17:15:29.587Z,19.00
2019-05-28T17:17:59.069Z,19.00
2019-05-28T17:22:56.284Z,19.00
2019-05-28T17:25:24.468Z,19.00
2019-05-28T17:27:52.580Z,19.00
2019-05-28T17:30:24.041Z,19.00
2019-05-28T17:32:50.604Z,19.00
2019-05-28T17:35:19.096Z,18.90
2019-05-28T17:37:47.369Z,18.90
2019-05-28T17:40:21.791Z,18.80
2019-05-28T17:42:47.896Z,18.70
2019-05-28T17:45:17.982Z,18.50
2019-05-28T17:47:47.060Z,18.50
2019-05-28T17:50:17.792Z,18.50
2019-05-28T17:52:51.293Z,18.50
2019-05-28T17:55:19.182Z,18.40
2019-05-28T17:57:47.411Z,18.40
2019-05-28T18:00:17.844Z,18.50
2019-05-28T18:02:48.619Z,18.50
2019-05-28T18:05:17.872Z,18.50
2019-05-28T18:07:47.037Z,18.50
2019-05-28T18:10:15.049Z,18.60
2019-05-28T18:12:42.561Z,18.60
2019-05-28T18:15:11.573Z,18.70
2019-05-28T18:20:10.286Z,18.60
2019-05-28T18:22:40.557Z,18.60
2019-05-28T18:25:09.309Z,18.60
2019-05-28T18:27:38.616Z,18.60
2019-05-28T18:30:08.237Z,18.50
2019-05-28T18:32:37.514Z,18.50
2019-05-28T18:35:07.681Z,18.50
2019-05-28T18:37:46.965Z,18.40
2019-05-28T18:40:16.685Z,18.40
2019-05-28T18:42:46.402Z,18.40
2019-05-28T18:45:18.098Z,18.30
2019-05-28T18:47:45.790Z,18.30
2019-05-28T18:50:20.550Z,18.30
2019-05-28T18:52:49.534Z,18.20
2019-05-28T18:55:26.703Z,18.20
2019-05-28T18:57:55.227Z,18.10
2019-05-28T19:00:25.818Z,18.10
2019-05-28T19:02:56.595Z,18.00
2019-05-28T19:05:25.718Z,18.00
2019-05-28T19:07:54.682Z,17.90
2019-05-28T19:10:23.439Z,17.90
2019-05-28T19:12:54.457Z,17.80
2019-05-28T19:15:23.603Z,17.70
2019-05-28T19:17:54.211Z,17.70
2019-05-28T19:20:22.909Z,17.70
2019-05-28T19:22:53.862Z,17.70
2019-05-28T19:25:35.182Z,17.60
2019-05-28T19:28:25.427Z,17.60
2019-05-28T19:31:00.051Z,17.60
2019-05-28T19:33:32.893Z,17.60
2019-05-28T19:36:04.123Z,17.60
2019-05-28T19:38:46.226Z,17.60
2019-05-28T19:41:18.624Z,17.60
2019-05-28T19:43:48.956Z,17.50
2019-05-28T19:46:39.636Z,17.50
2019-05-28T19:49:12.590Z,17.40
2019-05-28T19:51:45.752Z,17.40
2019-05-28T19:54:20.316Z,17.30
2019-05-28T19:56:53.230Z,17.30
2019-05-28T20:01:49.472Z,17.20
2019-05-28T20:04:18.444Z,17.20
2019-05-28T20:06:47.046Z,17.20
2019-05-28T20:09:15.408Z,17.20
2019-05-28T20:11:44.780Z,17.20
2019-05-28T20:14:17.303Z,17.10
2019-05-28T20:16:51.191Z,17.10
2019-05-28T20:19:19.684Z,17.10
2019-05-28T20:21:52.609Z,17.10
2019-05-28T20:26:51.880Z,17.10
2019-05-28T20:29:34.024Z,17.10
2019-05-28T20:32:07.211Z,17.10
2019-05-28T20:34:38.061Z,17.00
2019-05-28T20:37:06.406Z,17.00
2019-05-28T20:39:38.299Z,16.90
2019-05-28T20:42:11.365Z,16.80
2019-05-28T20:44:42.266Z,16.70
2019-05-28T20:47:15.282Z,16.70
2019-05-28T20:49:48.337Z,16.70
2019-05-28T20:57:36.893Z,16.70
2019-05-28T21:00:08.816Z,16.70
2019-05-28T21:02:37.819Z,16.70
2019-05-28T21:05:08.503Z,16.70
2019-05-28T21:10:18.402Z,16.60
2019-05-28T21:12:52.591Z,16.60
2019-05-28T21:15:22.294Z,16.50
2019-05-28T21:17:57.353Z,16.50
2019-05-28T21:23:00.196Z,16.40
2019-05-28T21:25:33.601Z,16.40
2019-05-28T21:28:07.829Z,16.40
2019-05-28T21:30:42.903Z,16.30
2019-05-28T21:33:16.782Z,16.30
2019-05-28T21:35:48.308Z,16.20
2019-05-28T21:38:20.927Z,16.20
2019-05-28T21:41:05.861Z,16.10
2019-05-28T21:43:35.908Z,16.10
2019-05-28T21:46:19.647Z,16.00
2019-05-28T21:48:52.276Z,16.00
2019-05-28T21:51:25.092Z,16.00
2019-05-28T21:53:58.985Z,16.00
2019-05-28T21:56:29.433Z,16.00
2019-05-28T22:01:36.066Z,16.10
2019-05-28T22:04:13.673Z,16.10
2019-05-28T22:06:42.125Z,16.10
2019-05-28T22:09:15.917Z,16.20
2019-05-28T22:11:52.071Z,16.20
2019-05-28T22:14:33.201Z,16.20
2019-05-28T22:19:53.351Z,16.20
2019-05-28T22:22:22.900Z,16.10
2019-05-28T22:24:58.576Z,16.00
2019-05-28T22:27:30.476Z,16.00
2019-05-28T22:32:29.517Z,16.10
2019-05-28T22:35:02.051Z,16.10
2019-05-28T22:37:31.779Z,16.10
2019-05-28T22:40:04.762Z,16.00
2019-05-28T22:42:33.066Z,16.00
2019-05-28T22:45:13.622Z,16.00
2019-05-28T22:47:45.984Z,16.00
2019-05-28T22:50:23.193Z,16.00
2019-05-28T22:52:54.438Z,16.00
2019-05-28T22:55:26.726Z,16.00
2019-05-28T22:57:55.559Z,16.00
2019-05-28T23:00:26.595Z,15.90
2019-05-28T23:05:33.880Z,15.90
2019-05-28T23:08:05.884Z,15.90
2019-05-28T23:13:04.969Z,15.80
2019-05-28T23:15:33.391Z,15.80
2019-05-28T23:18:07.332Z,15.80
2019-05-28T23:20:39.481Z,15.80
2019-05-28T23:23:09.358Z,15.80
2019-05-28T23:28:58.845Z,12.50
2019-05-28T23:31:49.082Z,15.70
2019-05-28T23:34:42.682Z,15.70
2019-05-28T23:37:34.339Z,15.70
2019-05-28T23:39:54.326Z,15.70
2019-05-28T23:42:28.938Z,15.60
2019-05-28T23:44:59.048Z,15.60
2019-05-28T23:47:29.521Z,15.60
2019-05-28T23:50:00.273Z,15.60
2019-05-28T23:52:32.035Z,15.60
2019-05-28T23:55:05.761Z,15.50
2019-05-28T23:58:00.741Z,15.50
